Voyageurs National Park, MN

5:54 PM CDT on September 25, 2016 (GMT -0500)
Wayside Lane | | Change Station

Elev 1115 ft 48.60 °N, 93.42 °W | Updated 10 minutes ago

Rain
Rain
57.4 °F
Feels Like 57.4 °F
N
1.0
Wind Variable Wind from SW
Gusts 11.0 mph

Today
High -- | Low -- °F
--% Chance of Precip.
Yesterday
High -- | Low -- °F
Precip. -- in
Pressure 29.67 in
Visibility 10.0 miles
Clouds Mostly Cloudy 1400 ft
Overcast 2300 ft
Dew Point 54 °F
Humidity 90%
Rainfall 0.62 in
Snow Depth Not available.
7:05 AM 7:04 PM
Waning Crescent, 24% visible
SPECI KINL 252252Z AUTO 25010KT 10SM BKN014 OVC023 14/12 A2967 RMK AO2
Pressure 29.67 in
Visibility 10.0 miles
Clouds Mostly Cloudy 1400 ft
Overcast 2300 ft
Dew Point 54 °F
Humidity 90%
Rainfall 0.62 in
Snow Depth Not available.
7:05 AM 7:04 PM
Waning Crescent, 24% visible
SPECI KINL 252252Z AUTO 25010KT 10SM BKN014 OVC023 14/12 A2967 RMK AO2

10-Day Weather Forecast

Almanac

Astronomy

Sep. 25, 2016 Rise Set
Actual Time
Civil Twilight
Nautical Twilight
Astronomical Twilight
Moon
Length of Visible Light
Length of Day
Tomorrow will be .
, % of the Moon is Illuminated

Today's Extremes

State Highs State Lows

Community

WunderPhotos

Upload Photos

1,941,761 photos uploaded!

WunderBlog® & News

Nearby

Air Quality

  Air Quality AQ Index Pollutant
Not available.

Snow Depth

Station Depth Elevation

Earthquake Activity

City Distance Mag. Time & Date
Minimum magnitude displayed is 2.5.

Coastal Water Temperatures

Place Temperature

Stations

Nearby Weather Stations

Station Location Temp. Windchill Dew Point Humidity Wind Precip. Elev Updated Type
                   

Watches & Warnings

There are currently no watches in effect.